createdAt,value
2023-03-02T00:01:47.427Z,42.38
2023-03-02T00:04:26.473Z,38.90
2023-03-02T00:06:56.375Z,38.58
2023-03-02T00:09:23.160Z,36.47
2023-03-02T00:11:50.879Z,35.33
2023-03-02T00:14:17.761Z,37.53
2023-03-02T00:16:44.520Z,39.38
2023-03-02T00:19:11.247Z,40.35
2023-03-02T00:21:37.931Z,37.17
2023-03-02T00:24:05.017Z,43.55
2023-03-02T00:26:34.660Z,41.67
2023-03-02T00:29:01.663Z,39.65
2023-03-02T00:31:28.492Z,41.38
2023-03-02T00:33:55.392Z,38.22
2023-03-02T00:36:23.524Z,40.25
2023-03-02T00:38:52.069Z,36.35
2023-03-02T00:41:21.560Z,44.03
2023-03-02T00:43:48.907Z,40.22
2023-03-02T00:46:20.597Z,40.67
2023-03-02T00:48:47.359Z,40.55
2023-03-02T00:51:14.819Z,44.20
2023-03-02T00:53:41.643Z,37.78
2023-03-02T00:56:09.817Z,42.40
2023-03-02T00:58:37.075Z,42.00
2023-03-02T01:01:09.652Z,42.13
2023-03-02T01:03:37.050Z,39.28
2023-03-02T01:06:04.751Z,41.42
2023-03-02T01:08:31.880Z,43.67
2023-03-02T01:11:01.326Z,43.15
2023-03-02T01:13:28.556Z,40.05
2023-03-02T01:16:03.162Z,45.10
2023-03-02T01:18:29.887Z,39.65
2023-03-02T01:21:04.668Z,45.20
2023-03-02T01:23:31.363Z,41.78
2023-03-02T01:25:58.562Z,45.53
2023-03-02T01:28:25.353Z,41.33
2023-03-02T01:30:52.096Z,39.40
2023-03-02T01:33:18.768Z,43.75
2023-03-02T01:35:46.821Z,40.75
2023-03-02T01:38:14.004Z,47.75
2023-03-02T01:40:40.860Z,44.47
2023-03-02T01:43:12.768Z,52.05
2023-03-02T01:46:01.866Z,45.40
2023-03-02T01:48:32.596Z,42.53
2023-03-02T01:51:00.404Z,44.92
2023-03-02T01:53:28.896Z,43.85
2023-03-02T01:55:56.460Z,44.85
2023-03-02T01:58:23.225Z,45.15
2023-03-02T02:00:50.106Z,43.10
2023-03-02T02:03:21.115Z,46.97
2023-03-02T02:06:24.535Z,45.67
2023-03-02T02:08:52.604Z,47.60
2023-03-02T02:11:19.341Z,52.15
2023-03-02T02:13:46.298Z,50.88
2023-03-02T02:16:13.249Z,50.17
2023-03-02T02:18:41.154Z,51.53
2023-03-02T02:21:08.904Z,46.75
2023-03-02T02:24:01.586Z,49.92
2023-03-02T02:26:41.654Z,48.00
2023-03-02T02:29:15.730Z,48.55
2023-03-02T02:31:51.342Z,47.25
2023-03-02T02:34:23.222Z,47.75
2023-03-02T02:36:53.008Z,47.15
2023-03-02T02:39:24.315Z,52.20
2023-03-02T02:41:52.966Z,52.05
2023-03-02T02:44:19.772Z,51.55
2023-03-02T02:46:46.611Z,45.85
2023-03-02T02:49:35.062Z,51.35
2023-03-02T02:52:02.941Z,53.38
2023-03-02T02:54:30.294Z,50.72
2023-03-02T02:56:58.033Z,47.38
2023-03-02T02:59:28.831Z,51.38
2023-03-02T03:01:56.312Z,48.40
2023-03-02T03:04:26.963Z,48.47
2023-03-02T03:06:57.768Z,57.00
2023-03-02T03:09:25.762Z,50.17
2023-03-02T03:12:16.710Z,48.95
2023-03-02T03:14:43.661Z,46.63
2023-03-02T03:17:13.418Z,51.72
2023-03-02T03:19:42.849Z,50.05
2023-03-02T03:22:13.267Z,48.00
2023-03-02T03:24:41.188Z,51.70
2023-03-02T03:27:09.348Z,46.70
2023-03-02T03:29:38.053Z,51.53
2023-03-02T03:32:06.964Z,50.90
2023-03-02T03:34:40.316Z,49.05
2023-03-02T03:37:08.639Z,48.13
2023-03-02T03:39:35.489Z,49.47
2023-03-02T03:42:02.209Z,46.63
2023-03-02T03:44:28.990Z,47.90
2023-03-02T03:46:55.818Z,56.33
2023-03-02T03:49:22.588Z,52.25
2023-03-02T03:51:49.329Z,47.50
2023-03-02T03:54:16.004Z,49.97
2023-03-02T03:56:45.476Z,53.47
2023-03-02T03:59:14.751Z,49.15
2023-03-02T04:01:47.495Z,51.92
2023-03-02T04:04:16.720Z,47.40
2023-03-02T04:06:43.863Z,50.72
2023-03-02T04:09:12.171Z,47.70
2023-03-02T04:11:44.515Z,49.33
2023-03-02T04:14:11.588Z,56.15
2023-03-02T04:16:39.421Z,52.35
2023-03-02T04:19:09.630Z,54.45
2023-03-02T04:21:41.216Z,51.85
2023-03-02T04:24:09.048Z,51.03
2023-03-02T04:26:37.131Z,50.78
2023-03-02T04:29:04.377Z,54.70
2023-03-02T04:31:34.052Z,57.08
2023-03-02T04:34:03.982Z,54.55
2023-03-02T04:36:32.924Z,56.20
2023-03-02T04:38:59.987Z,53.67
2023-03-02T04:41:26.718Z,52.50
2023-03-02T04:43:53.445Z,54.10
2023-03-02T04:46:23.378Z,50.90
2023-03-02T04:48:50.324Z,50.22
2023-03-02T04:51:30.402Z,58.88
2023-03-02T04:53:59.583Z,50.97
2023-03-02T04:56:26.638Z,51.20
2023-03-02T04:58:53.450Z,52.08
2023-03-02T05:01:20.696Z,50.05
2023-03-02T05:03:47.862Z,44.35
2023-03-02T05:06:14.965Z,57.75
2023-03-02T05:08:41.774Z,51.55
2023-03-02T05:11:10.646Z,53.88
2023-03-02T05:13:37.393Z,50.63
2023-03-02T05:16:04.346Z,50.67
2023-03-02T05:18:31.440Z,54.83
2023-03-02T05:20:58.228Z,56.72
2023-03-02T05:23:25.806Z,50.25
2023-03-02T05:25:55.033Z,49.00
2023-03-02T05:28:23.687Z,51.58
2023-03-02T05:30:50.624Z,50.28
2023-03-02T05:33:18.147Z,51.35
2023-03-02T05:35:45.072Z,52.95
2023-03-02T05:38:11.897Z,49.65
2023-03-02T05:40:39.276Z,49.45
2023-03-02T05:43:06.626Z,53.33
2023-03-02T05:45:35.466Z,48.65
2023-03-02T05:48:02.320Z,49.17
2023-03-02T05:50:29.043Z,49.25
2023-03-02T05:52:55.701Z,52.88
2023-03-02T05:55:22.369Z,52.97
2023-03-02T05:57:49.311Z,51.30
2023-03-02T06:00:17.266Z,51.67
2023-03-02T06:02:44.208Z,52.05
2023-03-02T06:05:13.704Z,54.45
2023-03-02T06:07:41.003Z,51.53
2023-03-02T06:10:10.409Z,53.75
2023-03-02T06:12:37.200Z,47.55
2023-03-02T06:15:08.409Z,55.72
2023-03-02T06:17:35.123Z,54.03
2023-03-02T06:20:01.917Z,47.72
2023-03-02T06:22:28.633Z,49.72
2023-03-02T06:24:55.385Z,51.67
2023-03-02T06:27:22.100Z,47.17
2023-03-02T06:29:49.445Z,51.60
2023-03-02T06:32:16.302Z,51.55
2023-03-02T06:34:42.996Z,52.63
2023-03-02T06:37:09.830Z,51.25
2023-03-02T06:39:36.502Z,48.42
2023-03-02T06:42:03.150Z,48.00
2023-03-02T06:44:29.868Z,46.53
2023-03-02T06:46:56.552Z,50.75
2023-03-02T06:49:24.238Z,48.50
2023-03-02T06:51:50.897Z,50.55
2023-03-02T06:54:17.576Z,48.20
2023-03-02T06:56:44.299Z,53.38
2023-03-02T06:59:10.962Z,47.88
2023-03-02T07:01:37.746Z,49.83
2023-03-02T07:04:04.707Z,47.00
2023-03-02T07:06:31.392Z,47.25
2023-03-02T07:08:58.023Z,43.95
2023-03-02T07:11:25.037Z,46.25
2023-03-02T07:13:51.712Z,47.08
2023-03-02T07:16:18.620Z,46.78
2023-03-02T07:18:45.287Z,45.38
2023-03-02T07:21:11.973Z,45.25
2023-03-02T07:23:38.629Z,43.83
2023-03-02T07:26:08.531Z,47.42
2023-03-02T07:28:40.064Z,48.55
2023-03-02T07:31:06.915Z,43.22
2023-03-02T07:33:33.769Z,47.05
2023-03-02T07:36:00.882Z,44.08
2023-03-02T07:38:28.147Z,48.90
2023-03-02T07:40:55.300Z,44.38
2023-03-02T07:43:24.033Z,50.88
2023-03-02T07:45:50.913Z,42.22
2023-03-02T07:48:18.039Z,47.05
2023-03-02T07:50:44.724Z,42.88
2023-03-02T07:53:11.401Z,44.65
2023-03-02T07:55:41.874Z,44.85
2023-03-02T07:58:08.659Z,47.40
2023-03-02T08:00:36.685Z,46.10
2023-03-02T08:03:03.509Z,42.38
2023-03-02T08:05:30.676Z,42.28
2023-03-02T08:07:57.339Z,42.47
2023-03-02T08:10:24.063Z,44.80
2023-03-02T08:12:50.756Z,42.85
2023-03-02T08:15:17.522Z,37.78
2023-03-02T08:17:44.874Z,41.60
2023-03-02T08:20:12.257Z,39.20
2023-03-02T08:22:38.961Z,41.35
2023-03-02T08:25:07.258Z,41.40
2023-03-02T08:27:33.932Z,42.17
2023-03-02T08:30:00.588Z,42.63
2023-03-02T08:32:27.358Z,39.08
2023-03-02T08:34:54.449Z,46.03
2023-03-02T08:37:21.213Z,38.03
2023-03-02T08:39:48.573Z,41.20
2023-03-02T08:42:15.352Z,41.05
2023-03-02T08:44:41.986Z,38.45
2023-03-02T08:47:08.726Z,35.13
2023-03-02T08:49:37.865Z,34.67
2023-03-02T08:52:04.776Z,45.13
2023-03-02T08:54:32.069Z,42.70
2023-03-02T08:56:58.734Z,33.67
2023-03-02T08:59:25.496Z,40.75
2023-03-02T09:01:52.183Z,35.78
2023-03-02T09:04:19.120Z,34.83
2023-03-02T09:06:45.838Z,38.90
2023-03-02T09:09:13.963Z,37.53
2023-03-02T09:11:42.190Z,38.65
2023-03-02T09:14:09.121Z,37.13
2023-03-02T09:16:35.832Z,33.55
2023-03-02T09:19:02.712Z,35.08
2023-03-02T09:21:29.531Z,38.40
2023-03-02T09:23:58.073Z,41.28
2023-03-02T09:26:26.338Z,41.00
2023-03-02T09:28:53.096Z,40.38
2023-03-02T09:31:19.949Z,39.13
2023-03-02T09:33:46.687Z,35.22
2023-03-02T09:36:19.261Z,41.25
2023-03-02T09:38:46.026Z,40.45
2023-03-02T09:41:31.942Z,37.70
2023-03-02T09:44:37.159Z,39.90
2023-03-02T09:47:05.888Z,39.97
2023-03-02T09:49:51.242Z,39.65
2023-03-02T09:52:47.588Z,38.45
2023-03-02T09:55:16.812Z,42.60
2023-03-02T09:57:44.598Z,45.70
2023-03-02T10:00:20.170Z,41.88
2023-03-02T10:02:54.401Z,34.40
2023-03-02T10:05:31.272Z,41.72
2023-03-02T10:07:59.389Z,34.15
2023-03-02T10:10:44.210Z,35.90
2023-03-02T10:13:21.480Z,35.63
2023-03-02T10:16:20.324Z,40.00
2023-03-02T10:19:25.016Z,37.10
2023-03-02T10:21:59.123Z,39.28
2023-03-02T10:24:40.785Z,34.90
2023-03-02T10:27:20.533Z,38.00
2023-03-02T10:29:58.178Z,36.65
2023-03-02T10:32:31.708Z,40.75
2023-03-02T10:34:59.561Z,31.60
2023-03-02T10:37:30.438Z,35.00
2023-03-02T10:39:57.461Z,43.60
2023-03-02T10:42:29.471Z,35.05
2023-03-02T10:44:59.237Z,35.40
2023-03-02T10:47:28.019Z,39.92
2023-03-02T10:49:56.386Z,38.28
2023-03-02T10:52:28.034Z,38.92
2023-03-02T10:55:05.271Z,46.35
2023-03-02T10:57:41.926Z,39.42
2023-03-02T11:00:18.000Z,38.97
2023-03-02T11:02:54.688Z,41.25
2023-03-02T11:05:41.316Z,34.35
2023-03-02T11:08:18.627Z,39.80
2023-03-02T11:11:05.763Z,34.95
2023-03-02T11:13:37.317Z,38.70
2023-03-02T11:16:21.436Z,42.67
2023-03-02T11:19:08.393Z,34.80
2023-03-02T11:21:36.241Z,45.72
2023-03-02T11:24:19.677Z,36.95
2023-03-02T11:26:50.896Z,37.88
2023-03-02T11:29:28.932Z,37.03
2023-03-02T11:32:04.975Z,40.65
2023-03-02T11:34:36.112Z,34.58
2023-03-02T11:37:21.861Z,34.40
2023-03-02T11:39:54.936Z,36.03
2023-03-02T11:42:31.032Z,36.80
2023-03-02T11:45:02.071Z,36.40
2023-03-02T11:47:31.757Z,36.67
2023-03-02T11:50:05.035Z,37.20
2023-03-02T11:52:34.792Z,38.10
2023-03-02T11:55:16.413Z,34.30
2023-03-02T11:57:49.562Z,34.95
2023-03-02T12:00:19.354Z,37.53
2023-03-02T12:02:46.032Z,36.88
2023-03-02T12:05:27.507Z,38.72
2023-03-02T12:08:02.906Z,40.55
2023-03-02T12:10:41.996Z,35.00
2023-03-02T12:13:21.665Z,35.75
2023-03-02T12:15:52.517Z,40.40
2023-03-02T12:18:22.448Z,38.85
2023-03-02T12:21:08.580Z,38.58
2023-03-02T12:23:40.708Z,36.78
2023-03-02T12:26:32.028Z,35.53
2023-03-02T12:29:01.216Z,38.10
2023-03-02T12:31:50.512Z,35.08
2023-03-02T12:34:35.130Z,37.28
2023-03-02T12:37:07.513Z,33.65
2023-03-02T12:40:12.256Z,35.40
2023-03-02T12:43:19.642Z,37.20
2023-03-02T12:46:29.015Z,37.88
2023-03-02T12:49:14.827Z,32.67
2023-03-02T12:51:53.978Z,31.02
2023-03-02T12:54:26.067Z,35.53
2023-03-02T12:57:15.281Z,35.25
2023-03-02T12:59:42.649Z,36.45
2023-03-02T13:02:15.177Z,30.98
2023-03-02T13:04:42.079Z,36.70
2023-03-02T13:07:19.759Z,36.42
2023-03-02T13:09:56.705Z,34.38
2023-03-02T13:12:26.753Z,44.17
2023-03-02T13:14:56.970Z,38.03
2023-03-02T13:17:31.859Z,32.35
2023-03-02T13:20:00.250Z,36.47
2023-03-02T13:22:28.239Z,33.45
2023-03-02T13:25:02.028Z,35.30
2023-03-02T13:27:29.107Z,36.22
2023-03-02T13:29:56.625Z,37.42
2023-03-02T13:32:40.678Z,31.48
2023-03-02T13:35:26.459Z,35.25
2023-03-02T13:38:13.734Z,36.95
2023-03-02T13:40:44.610Z,35.10
2023-03-02T13:43:26.638Z,38.38
2023-03-02T13:46:02.063Z,38.85
2023-03-02T13:48:29.439Z,33.97
2023-03-02T13:50:58.859Z,34.22
2023-03-02T13:53:27.387Z,31.38
2023-03-02T13:55:54.424Z,35.47
2023-03-02T13:58:21.692Z,36.13
2023-03-02T14:00:49.498Z,34.40
2023-03-02T14:03:29.025Z,32.42
2023-03-02T14:05:57.297Z,33.25
2023-03-02T14:08:24.133Z,31.58
2023-03-02T14:10:53.459Z,37.22
2023-03-02T14:13:24.044Z,37.40
2023-03-02T14:15:52.407Z,44.80
2023-03-02T14:18:28.315Z,34.20
2023-03-02T14:20:55.649Z,40.17
2023-03-02T14:23:23.298Z,34.38
2023-03-02T14:25:50.726Z,34.30
2023-03-02T14:28:27.237Z,30.23
2023-03-02T14:30:55.805Z,34.30
2023-03-02T14:33:23.080Z,36.88
2023-03-02T14:35:52.419Z,38.60
2023-03-02T14:38:22.644Z,38.30
2023-03-02T14:40:49.370Z,36.70
2023-03-02T14:43:18.443Z,40.65
2023-03-02T14:45:45.476Z,33.47
2023-03-02T14:48:12.418Z,33.45
2023-03-02T14:50:41.445Z,33.78
2023-03-02T14:53:16.877Z,38.00
2023-03-02T14:55:44.036Z,35.22
2023-03-02T14:58:25.364Z,39.15
2023-03-02T15:00:52.167Z,37.00
2023-03-02T15:03:22.571Z,35.95
2023-03-02T15:06:00.965Z,34.92
2023-03-02T15:08:29.078Z,35.83
2023-03-02T15:10:56.893Z,38.42
2023-03-02T15:13:23.573Z,32.88
2023-03-02T15:15:50.518Z,31.63
2023-03-02T15:18:19.654Z,37.95
2023-03-02T15:20:46.577Z,31.73
2023-03-02T15:23:14.316Z,34.85
2023-03-02T15:25:41.069Z,33.72
2023-03-02T15:28:08.045Z,36.67
2023-03-02T15:30:35.471Z,31.08
2023-03-02T15:33:02.196Z,32.63
2023-03-02T15:35:29.372Z,36.38
2023-03-02T15:37:58.231Z,31.33
2023-03-02T15:40:25.781Z,33.17
2023-03-02T15:42:53.141Z,32.95
2023-03-02T15:45:20.138Z,46.05
2023-03-02T15:47:47.116Z,36.53
2023-03-02T15:50:13.849Z,34.42
2023-03-02T15:52:41.496Z,35.08
2023-03-02T15:55:08.946Z,34.55
2023-03-02T15:57:39.393Z,39.40
2023-03-02T16:00:06.862Z,37.47
2023-03-02T16:02:33.795Z,34.80
2023-03-02T16:05:00.530Z,35.92
2023-03-02T16:07:27.287Z,30.63
2023-03-02T16:09:53.923Z,44.10
2023-03-02T16:12:23.251Z,40.13
2023-03-02T16:14:49.924Z,41.50
2023-03-02T16:17:18.970Z,42.83
2023-03-02T16:19:46.087Z,37.08
2023-03-02T16:22:12.770Z,32.63
2023-03-02T16:24:40.913Z,40.80
2023-03-02T16:27:08.597Z,36.72
2023-03-02T16:29:35.280Z,40.63
2023-03-02T16:32:02.043Z,38.25
2023-03-02T16:34:28.801Z,36.10
2023-03-02T16:36:55.638Z,39.72
2023-03-02T16:39:22.831Z,42.47
2023-03-02T16:41:51.221Z,33.33
2023-03-02T16:44:18.203Z,40.20
2023-03-02T16:46:45.130Z,35.58
2023-03-02T16:49:13.211Z,31.38
2023-03-02T16:51:40.516Z,30.33
2023-03-02T16:54:07.549Z,32.60
2023-03-02T16:56:34.342Z,34.80
2023-03-02T16:59:01.045Z,30.95
2023-03-02T17:01:28.488Z,31.13
2023-03-02T17:03:55.205Z,34.42
2023-03-02T17:06:23.288Z,36.00
2023-03-02T17:08:50.722Z,29.58
2023-03-02T17:11:18.203Z,35.53
2023-03-02T17:13:44.899Z,34.58
2023-03-02T17:16:12.111Z,36.55
2023-03-02T17:18:39.027Z,36.25
2023-03-02T17:21:05.952Z,34.40
2023-03-02T17:23:32.945Z,37.47
2023-03-02T17:25:59.632Z,38.58
2023-03-02T17:28:26.304Z,40.42
2023-03-02T17:30:53.169Z,39.30
2023-03-02T17:33:19.919Z,40.95
2023-03-02T17:35:46.712Z,41.45
2023-03-02T17:38:14.473Z,39.42
2023-03-02T17:40:41.887Z,48.75
2023-03-02T17:43:08.786Z,34.92
2023-03-02T17:45:35.648Z,49.25
2023-03-02T17:48:02.379Z,41.78
2023-03-02T17:50:31.723Z,37.63
2023-03-02T17:52:59.682Z,37.92
2023-03-02T17:55:26.584Z,34.80
2023-03-02T17:57:53.302Z,40.50
2023-03-02T18:00:21.723Z,47.45
2023-03-02T18:02:49.072Z,50.65
2023-03-02T18:05:15.893Z,38.45
2023-03-02T18:07:42.593Z,47.53
2023-03-02T18:10:10.243Z,40.25
2023-03-02T18:12:37.333Z,37.42
2023-03-02T18:15:05.017Z,36.00
2023-03-02T18:17:31.887Z,45.90
2023-03-02T18:19:58.552Z,40.13
2023-03-02T18:22:25.232Z,39.20
2023-03-02T18:24:52.804Z,36.55
2023-03-02T18:27:19.642Z,37.97
2023-03-02T18:29:46.360Z,35.15
2023-03-02T18:32:13.708Z,40.03
2023-03-02T18:34:40.621Z,34.40
2023-03-02T18:37:07.312Z,35.88
2023-03-02T18:39:34.517Z,38.33
2023-03-02T18:42:01.440Z,42.13
2023-03-02T18:44:28.318Z,45.17
2023-03-02T18:46:55.636Z,36.72
2023-03-02T18:49:22.889Z,35.00
2023-03-02T18:51:49.912Z,38.08
2023-03-02T18:54:16.613Z,41.47
2023-03-02T18:56:43.310Z,34.88
2023-03-02T18:59:11.228Z,37.92
2023-03-02T19:01:38.077Z,41.35
2023-03-02T19:04:05.267Z,38.33
2023-03-02T19:06:32.516Z,46.53
2023-03-02T19:08:59.229Z,50.85
2023-03-02T19:11:26.237Z,44.17
2023-03-02T19:13:53.027Z,40.70
2023-03-02T19:16:19.775Z,38.75
2023-03-02T19:18:46.824Z,36.95
2023-03-02T19:21:13.554Z,38.38
2023-03-02T19:23:41.038Z,39.58
2023-03-02T19:26:08.208Z,41.17
2023-03-02T19:28:36.083Z,39.78
2023-03-02T19:31:08.858Z,34.63
2023-03-02T19:33:36.121Z,36.08
2023-03-02T19:36:03.582Z,34.47
2023-03-02T19:38:30.298Z,42.78
2023-03-02T19:40:58.471Z,38.90
2023-03-02T19:43:26.509Z,40.53
2023-03-02T19:45:53.530Z,41.42
2023-03-02T19:48:20.732Z,37.83
2023-03-02T19:50:48.009Z,38.15
2023-03-02T19:53:16.851Z,41.80
2023-03-02T19:55:44.002Z,39.28
2023-03-02T19:58:16.878Z,37.63
2023-03-02T20:00:44.364Z,38.58
2023-03-02T20:03:11.055Z,39.03
2023-03-02T20:05:37.895Z,38.33
2023-03-02T20:08:05.634Z,37.05
2023-03-02T20:10:39.420Z,49.35
2023-03-02T20:13:07.271Z,44.15
2023-03-02T20:15:38.062Z,42.42
2023-03-02T20:18:06.476Z,45.85
2023-03-02T20:20:35.382Z,45.22
2023-03-02T20:23:02.185Z,45.65
2023-03-02T20:25:28.989Z,40.47
2023-03-02T20:27:56.390Z,44.97
2023-03-02T20:30:30.240Z,42.55
2023-03-02T20:32:58.274Z,45.70
2023-03-02T20:35:26.965Z,38.30
2023-03-02T20:37:55.104Z,42.63
2023-03-02T20:40:23.170Z,39.25
2023-03-02T20:42:49.923Z,39.00
2023-03-02T20:45:16.874Z,35.83
2023-03-02T20:47:43.656Z,36.60
2023-03-02T20:50:13.703Z,41.00
2023-03-02T20:52:40.397Z,37.33
2023-03-02T20:55:08.869Z,42.83
2023-03-02T20:57:35.553Z,34.92
2023-03-02T21:00:05.170Z,41.00
2023-03-02T21:02:32.302Z,36.80
2023-03-02T21:04:59.080Z,35.03
2023-03-02T21:07:25.996Z,36.75
2023-03-02T21:09:52.665Z,38.15
2023-03-02T21:12:19.547Z,35.70
2023-03-02T21:14:46.394Z,34.63
2023-03-02T21:17:13.110Z,47.17
2023-03-02T21:19:39.797Z,42.80
2023-03-02T21:22:06.545Z,36.25
2023-03-02T21:24:33.255Z,38.72
2023-03-02T21:27:01.291Z,35.65
2023-03-02T21:29:28.271Z,34.60
2023-03-02T21:31:55.087Z,37.63
2023-03-02T21:34:22.235Z,38.55
2023-03-02T21:36:52.994Z,34.05
2023-03-02T21:39:23.451Z,33.67
2023-03-02T21:41:51.163Z,35.58
2023-03-02T21:44:18.470Z,44.53
2023-03-02T21:46:45.331Z,42.30
2023-03-02T21:49:16.166Z,40.33
2023-03-02T21:51:42.929Z,33.80
2023-03-02T21:54:09.642Z,54.13
2023-03-02T21:56:36.332Z,36.58
2023-03-02T21:59:04.032Z,38.00
2023-03-02T22:01:32.689Z,36.95
2023-03-02T22:04:00.593Z,36.38
2023-03-02T22:06:30.752Z,44.00
2023-03-02T22:08:58.173Z,42.53
2023-03-02T22:11:36.307Z,41.78
2023-03-02T22:14:12.226Z,43.40
2023-03-02T22:16:41.206Z,42.42
2023-03-02T22:19:23.958Z,36.30
2023-03-02T22:21:51.305Z,35.53
2023-03-02T22:24:26.404Z,39.55
2023-03-02T22:27:00.047Z,33.50
2023-03-02T22:29:29.572Z,33.67
2023-03-02T22:31:58.984Z,37.03
2023-03-02T22:34:27.842Z,37.88
2023-03-02T22:37:10.152Z,38.45
2023-03-02T22:39:36.892Z,40.15
2023-03-02T22:42:16.678Z,36.40
2023-03-02T22:44:44.428Z,33.67
2023-03-02T22:47:20.720Z,35.60
2023-03-02T22:49:53.567Z,42.97
2023-03-02T22:52:24.165Z,38.63
2023-03-02T22:54:51.224Z,43.90
2023-03-02T22:57:33.693Z,42.15
2023-03-02T23:00:23.740Z,42.20
2023-03-02T23:02:51.119Z,38.03
2023-03-02T23:05:30.182Z,40.17
2023-03-02T23:08:20.250Z,36.78
2023-03-02T23:10:47.465Z,39.03
2023-03-02T23:13:17.554Z,42.67
2023-03-02T23:15:45.529Z,42.08
2023-03-02T23:18:24.085Z,42.08
2023-03-02T23:20:51.193Z,39.28
2023-03-02T23:23:19.674Z,41.95
2023-03-02T23:25:46.870Z,43.45
2023-03-02T23:28:13.775Z,44.85
2023-03-02T23:30:40.761Z,44.05
2023-03-02T23:33:07.791Z,40.40
2023-03-02T23:35:34.886Z,43.60
2023-03-02T23:38:01.627Z,45.35
2023-03-02T23:40:29.037Z,45.80
2023-03-02T23:42:55.997Z,43.33
2023-03-02T23:45:22.737Z,41.17
2023-03-02T23:47:49.469Z,46.47
2023-03-02T23:50:16.140Z,40.20
2023-03-02T23:52:42.812Z,46.25
2023-03-02T23:55:10.041Z,43.78
2023-03-02T23:57:36.706Z,44.35
